createdAt,value
2022-09-28T00:01:17.529Z,93362.38
2022-09-28T00:03:45.896Z,93355.50
2022-09-28T00:06:16.075Z,93345.88
2022-09-28T00:08:44.051Z,93365.38
2022-09-28T00:11:16.227Z,93343.53
2022-09-28T00:13:46.107Z,93343.69
2022-09-28T00:16:16.892Z,93350.59
2022-09-28T00:18:45.659Z,93353.41
2022-09-28T00:21:15.776Z,93349.44
2022-09-28T00:23:58.603Z,93347.16
2022-09-28T00:26:28.572Z,93347.00
2022-09-28T00:28:58.545Z,93333.25
2022-09-28T00:31:28.116Z,93327.53
2022-09-28T00:33:56.966Z,93332.19
2022-09-28T00:36:27.121Z,93348.00
2022-09-28T00:38:56.407Z,93344.25
2022-09-28T00:41:25.247Z,93336.66
2022-09-28T00:43:54.937Z,93346.84
2022-09-28T00:46:32.087Z,93343.03
2022-09-28T00:49:04.245Z,93342.03
2022-09-28T00:51:33.600Z,93338.50
2022-09-28T00:54:05.325Z,93309.53
2022-09-28T00:56:35.612Z,93335.56
2022-09-28T00:59:05.763Z,93334.63
2022-09-28T01:01:33.645Z,93332.59
2022-09-28T01:04:04.880Z,93348.59
2022-09-28T01:06:35.796Z,93342.16
2022-09-28T01:09:07.736Z,93332.97
2022-09-28T01:11:39.020Z,93341.00
2022-09-28T01:14:11.564Z,93345.25
2022-09-28T01:16:43.263Z,93343.31
2022-09-28T01:19:27.593Z,93345.63
2022-09-28T01:22:00.999Z,93340.28
2022-09-28T01:24:43.178Z,93346.53
2022-09-28T01:27:20.996Z,93333.91
2022-09-28T01:29:55.952Z,93348.53
2022-09-28T01:32:37.402Z,93340.25
2022-09-28T01:35:11.809Z,93355.66
2022-09-28T01:37:48.513Z,93357.88
2022-09-28T01:40:18.233Z,93349.47
2022-09-28T01:42:50.953Z,93361.06
2022-09-28T01:45:24.749Z,93358.03
2022-09-28T01:47:55.232Z,93345.41
2022-09-28T01:50:26.532Z,93351.31
2022-09-28T01:53:01.074Z,93354.81
2022-09-28T01:55:33.408Z,93332.00
2022-09-28T01:58:06.830Z,93352.22
2022-09-28T02:00:37.226Z,93352.72
2022-09-28T02:03:12.514Z,93342.91
2022-09-28T02:05:43.163Z,93361.94
2022-09-28T02:08:15.884Z,93352.75
2022-09-28T02:10:47.431Z,93372.75
2022-09-28T02:13:21.947Z,93359.34
2022-09-28T02:15:54.093Z,93363.31
2022-09-28T02:18:22.078Z,93360.53
2022-09-28T02:20:54.098Z,93355.13
2022-09-28T02:23:25.582Z,93359.13
2022-09-28T02:25:59.415Z,93352.09
2022-09-28T02:28:28.842Z,93360.28
2022-09-28T02:30:57.131Z,93360.03
2022-09-28T02:33:31.433Z,93360.72
2022-09-28T02:36:01.027Z,93349.09
2022-09-28T02:38:28.922Z,93344.25
2022-09-28T02:41:05.846Z,93350.84
2022-09-28T02:43:48.092Z,93356.97
2022-09-28T02:46:28.279Z,93363.63
2022-09-28T02:49:24.378Z,93353.56
2022-09-28T02:52:09.464Z,93355.69
2022-09-28T02:55:11.598Z,93362.94
2022-09-28T02:57:50.556Z,93362.22
2022-09-28T03:00:22.866Z,93354.25
2022-09-28T03:02:58.427Z,93377.97
2022-09-28T03:05:34.256Z,93358.94
2022-09-28T03:08:04.950Z,93363.31
2022-09-28T03:10:40.004Z,93379.34
2022-09-28T03:13:09.332Z,93379.88
2022-09-28T03:15:38.947Z,93377.03
2022-09-28T03:18:06.979Z,93388.22
2022-09-28T03:20:35.292Z,93386.19
2022-09-28T03:23:23.819Z,93380.16
2022-09-28T03:25:51.379Z,93391.56
2022-09-28T03:28:19.512Z,93378.94
2022-09-28T03:30:48.741Z,93380.78
2022-09-28T03:33:17.227Z,93380.50
2022-09-28T03:35:47.876Z,93392.53
2022-09-28T03:38:15.798Z,93394.63
2022-09-28T03:40:43.775Z,93396.94
2022-09-28T03:43:11.727Z,93398.91
2022-09-28T03:45:39.639Z,93383.66
2022-09-28T03:48:09.012Z,93384.00
2022-09-28T03:50:36.964Z,93377.41
2022-09-28T03:53:05.416Z,93382.06
2022-09-28T03:55:33.738Z,93384.34
2022-09-28T03:58:01.646Z,93385.38
2022-09-28T04:00:29.963Z,93392.31
2022-09-28T04:02:57.865Z,93394.34
2022-09-28T04:05:27.154Z,93397.94
2022-09-28T04:07:57.876Z,93393.50
2022-09-28T04:10:26.143Z,93394.72
2022-09-28T04:12:55.901Z,93389.88
2022-09-28T04:15:24.445Z,93386.44
2022-09-28T04:17:52.808Z,93391.09
2022-09-28T04:20:20.814Z,93377.50
2022-09-28T04:22:50.451Z,93391.50
2022-09-28T04:25:18.435Z,93400.03
2022-09-28T04:28:03.754Z,93401.03
2022-09-28T04:30:31.683Z,93399.09
2022-09-28T04:32:59.607Z,93392.44
2022-09-28T04:35:27.746Z,93374.47
2022-09-28T04:37:57.216Z,93402.22
2022-09-28T04:40:25.188Z,93395.81
2022-09-28T04:42:56.642Z,93386.22
2022-09-28T04:45:26.138Z,93378.31
2022-09-28T04:47:54.638Z,93387.66
2022-09-28T04:50:22.646Z,93399.94
2022-09-28T04:52:50.599Z,93394.91
2022-09-28T04:55:20.673Z,93385.47
2022-09-28T04:57:48.581Z,93375.91
2022-09-28T05:00:17.282Z,93393.13
2022-09-28T05:02:45.639Z,93376.56
2022-09-28T05:05:13.768Z,93386.44
2022-09-28T05:07:42.040Z,93370.81
2022-09-28T05:10:10.235Z,93379.72
2022-09-28T05:12:39.674Z,93383.25
2022-09-28T05:15:08.295Z,93400.25
2022-09-28T05:17:36.562Z,93382.28
2022-09-28T05:20:05.242Z,93390.28
2022-09-28T05:22:34.265Z,93395.38
2022-09-28T05:25:02.981Z,93408.63
2022-09-28T05:27:30.851Z,93420.38
2022-09-28T05:30:00.150Z,93382.94
2022-09-28T05:32:28.053Z,93405.84
2022-09-28T05:34:56.252Z,93400.97
2022-09-28T05:37:24.194Z,93399.13
2022-09-28T05:39:52.157Z,93394.13
2022-09-28T05:42:20.091Z,93397.16
2022-09-28T05:44:47.983Z,93407.31
2022-09-28T05:47:17.292Z,93396.44
2022-09-28T05:49:45.431Z,93402.72
2022-09-28T05:52:13.285Z,93409.75
2022-09-28T05:54:41.200Z,93395.88
2022-09-28T05:57:09.199Z,93403.63
2022-09-28T05:59:37.140Z,93407.81
2022-09-28T06:02:06.401Z,93404.50
2022-09-28T06:04:35.704Z,93387.03
2022-09-28T06:07:03.822Z,93405.44
2022-09-28T06:09:31.946Z,93411.84
2022-09-28T06:12:00.339Z,93414.88
2022-09-28T06:14:28.566Z,93414.16
2022-09-28T06:16:56.528Z,93411.94
2022-09-28T06:19:24.462Z,93412.66
2022-09-28T06:21:54.827Z,93428.50
2022-09-28T06:24:22.736Z,93432.94
2022-09-28T06:26:50.622Z,93439.41
2022-09-28T06:29:19.750Z,93427.31
2022-09-28T06:31:48.408Z,93430.03
2022-09-28T06:34:16.786Z,93427.09
2022-09-28T06:36:44.805Z,93419.31
2022-09-28T06:39:14.187Z,93430.22
2022-09-28T06:41:42.605Z,93436.00
2022-09-28T06:44:10.620Z,93434.88
2022-09-28T06:46:40.201Z,93440.84
2022-09-28T06:49:09.307Z,93437.97
2022-09-28T06:51:37.741Z,93440.97
2022-09-28T06:54:05.857Z,93448.81
2022-09-28T06:56:35.204Z,93443.59
2022-09-28T06:59:03.155Z,93444.66
2022-09-28T07:01:31.242Z,93435.03
2022-09-28T07:04:01.912Z,93434.31
2022-09-28T07:06:31.482Z,93445.94
2022-09-28T07:09:21.498Z,93455.41
2022-09-28T07:11:52.731Z,93449.22
2022-09-28T07:14:40.187Z,93448.34
2022-09-28T07:17:13.994Z,93461.56
2022-09-28T07:19:42.613Z,93449.22
2022-09-28T07:22:18.516Z,93464.19
2022-09-28T07:24:47.934Z,93457.03
2022-09-28T07:27:17.261Z,93468.84
2022-09-28T07:29:45.128Z,93470.44
2022-09-28T07:32:13.079Z,93461.09
2022-09-28T07:34:43.807Z,93457.16
2022-09-28T07:37:12.564Z,93473.91
2022-09-28T07:39:54.757Z,93479.44
2022-09-28T07:42:24.239Z,93461.34
2022-09-28T07:44:52.786Z,93479.69
2022-09-28T07:47:29.629Z,93479.56
2022-09-28T07:50:00.870Z,93465.72
2022-09-28T07:52:28.910Z,93471.22
2022-09-28T07:54:57.730Z,93482.28
2022-09-28T07:57:27.129Z,93489.09
2022-09-28T07:59:55.473Z,93486.28
2022-09-28T08:02:23.592Z,93488.44
2022-09-28T08:04:51.767Z,93496.94
2022-09-28T08:07:23.822Z,93496.38
2022-09-28T08:09:52.243Z,93490.34
2022-09-28T08:12:21.182Z,93483.94
2022-09-28T08:14:52.266Z,93498.63
2022-09-28T08:17:20.306Z,93476.19
2022-09-28T08:20:05.449Z,93497.56
2022-09-28T08:22:33.569Z,93504.03
2022-09-28T08:25:01.449Z,93512.00
2022-09-28T08:27:29.405Z,93512.41
2022-09-28T08:29:58.675Z,93515.75
2022-09-28T08:32:26.579Z,93519.63
2022-09-28T08:34:56.020Z,93535.72
2022-09-28T08:37:24.190Z,93523.41
2022-09-28T08:39:52.245Z,93535.50
2022-09-28T08:42:34.125Z,93525.88
2022-09-28T08:45:09.026Z,93542.72
2022-09-28T08:48:01.901Z,93545.38
2022-09-28T08:50:33.706Z,93536.72
2022-09-28T08:53:07.761Z,93511.81
2022-09-28T08:55:38.950Z,93524.88
2022-09-28T08:58:13.017Z,93530.53
2022-09-28T09:00:47.018Z,93529.69
2022-09-28T09:03:21.251Z,93519.75
2022-09-28T09:06:00.311Z,93544.31
2022-09-28T09:08:42.502Z,93543.84
2022-09-28T09:11:22.163Z,93526.41
2022-09-28T09:14:17.519Z,93547.50
2022-09-28T09:17:00.370Z,93566.75
2022-09-28T09:19:36.424Z,93557.03
2022-09-28T09:22:15.525Z,93531.81
2022-09-28T09:24:50.487Z,93532.00
2022-09-28T09:27:42.575Z,93538.09
2022-09-28T09:30:12.892Z,93520.53
2022-09-28T09:33:08.309Z,93535.41
2022-09-28T09:36:00.270Z,93533.44
2022-09-28T09:38:46.709Z,93536.44
2022-09-28T09:41:26.851Z,93541.00
2022-09-28T09:44:39.826Z,93537.72
2022-09-28T09:47:10.759Z,93542.44
2022-09-28T09:49:44.391Z,93562.41
2022-09-28T09:52:19.708Z,93558.03
2022-09-28T09:54:52.454Z,93558.91
2022-09-28T09:57:23.591Z,93581.59
2022-09-28T09:59:51.640Z,93584.56
2022-09-28T10:02:25.254Z,93599.84
2022-09-28T10:04:58.635Z,93617.50
2022-09-28T10:07:34.533Z,93624.53
2022-09-28T10:10:04.396Z,93635.00
2022-09-28T10:12:32.334Z,93640.72
2022-09-28T10:15:02.985Z,93636.75
2022-09-28T10:17:31.041Z,93630.34
2022-09-28T10:20:00.315Z,93630.88
2022-09-28T10:22:29.903Z,93630.25
2022-09-28T10:24:59.275Z,93629.66
2022-09-28T10:27:30.709Z,93620.34
2022-09-28T10:30:03.688Z,93614.03
2022-09-28T10:32:39.150Z,93612.16
2022-09-28T10:35:24.925Z,93611.16
2022-09-28T10:37:59.289Z,93612.88
2022-09-28T10:40:41.490Z,93616.25
2022-09-28T10:43:21.644Z,93615.25
2022-09-28T10:45:49.932Z,93604.13
2022-09-28T10:48:21.452Z,93588.00
2022-09-28T10:51:09.247Z,93607.38
2022-09-28T10:53:38.130Z,93592.88
2022-09-28T10:56:09.524Z,93588.94
2022-09-28T10:58:40.629Z,93592.06
2022-09-28T11:01:11.895Z,93584.47
2022-09-28T11:03:50.946Z,93585.97
2022-09-28T11:06:28.223Z,93584.66
2022-09-28T11:08:59.397Z,93586.53
2022-09-28T11:11:28.743Z,93583.94
2022-09-28T11:14:01.207Z,93569.19
2022-09-28T11:16:30.901Z,93572.53
2022-09-28T11:19:04.228Z,93570.41
2022-09-28T11:21:42.945Z,93572.34
2022-09-28T11:24:21.157Z,93562.28
2022-09-28T11:26:53.779Z,93556.03
2022-09-28T11:29:26.860Z,93557.28
2022-09-28T11:32:00.203Z,93556.56
2022-09-28T11:34:57.507Z,93542.78
2022-09-28T11:37:57.296Z,93527.28
2022-09-28T11:40:32.861Z,93523.88
2022-09-28T11:43:15.760Z,93535.19
2022-09-28T11:46:00.367Z,93526.00
2022-09-28T11:48:35.924Z,93544.59
2022-09-28T11:51:08.460Z,93537.09
2022-09-28T11:53:41.732Z,93550.25
2022-09-28T11:56:32.495Z,93547.19
2022-09-28T11:59:05.167Z,93546.69
2022-09-28T12:01:39.883Z,93529.09
2022-09-28T12:04:14.911Z,93535.84
2022-09-28T12:06:50.889Z,93536.47
2022-09-28T12:09:24.015Z,93528.78
2022-09-28T12:11:57.605Z,93516.47
2022-09-28T12:14:30.107Z,93521.13
2022-09-28T12:17:07.337Z,93524.22
2022-09-28T12:19:41.189Z,93534.06
2022-09-28T12:22:18.315Z,93528.19
2022-09-28T12:24:52.072Z,93530.25
2022-09-28T12:27:28.998Z,93527.88
2022-09-28T12:30:03.297Z,93522.19
2022-09-28T12:32:37.571Z,93521.78
2022-09-28T12:35:13.167Z,93517.53
2022-09-28T12:37:55.567Z,93529.75
2022-09-28T12:43:31.233Z,93517.63
2022-09-28T12:46:26.536Z,93526.69
2022-09-28T12:50:01.795Z,93522.59
2022-09-28T12:52:00.016Z,93520.06
2022-09-28T12:55:04.113Z,93527.00
2022-09-28T12:57:41.349Z,93518.38
2022-09-28T13:00:13.187Z,93531.66
2022-09-28T13:03:27.048Z,93527.06
2022-09-28T13:06:20.992Z,93529.56
2022-09-28T13:09:06.099Z,93521.69
2022-09-28T13:11:42.255Z,93527.09
2022-09-28T13:14:39.390Z,93522.22
2022-09-28T13:17:20.353Z,93525.44
2022-09-28T13:19:55.610Z,93524.63
2022-09-28T13:22:34.035Z,93515.81
2022-09-28T13:25:10.013Z,93524.66
2022-09-28T13:27:41.388Z,93514.75
2022-09-28T13:30:15.723Z,93521.97
2022-09-28T13:32:45.084Z,93540.34
2022-09-28T13:35:15.625Z,93536.38
2022-09-28T13:37:43.494Z,93538.84
2022-09-28T13:40:12.749Z,93527.22
2022-09-28T13:42:59.892Z,93555.59
2022-09-28T13:46:04.522Z,93534.81
2022-09-28T13:48:46.076Z,93540.13
2022-09-28T13:51:27.358Z,93518.66
2022-09-28T13:54:17.343Z,93521.31
2022-09-28T13:56:54.360Z,93524.25
2022-09-28T13:59:27.216Z,93526.28
2022-09-28T14:02:06.782Z,93520.03
2022-09-28T14:04:57.634Z,93493.09
2022-09-28T14:10:20.949Z,93515.63
2022-09-28T14:12:51.365Z,93516.31
2022-09-28T14:15:49.484Z,93507.75
2022-09-28T14:18:39.547Z,93499.34
2022-09-28T14:21:43.621Z,93494.06
2022-09-28T14:24:26.672Z,93489.94
2022-09-28T14:27:12.170Z,93490.31
2022-09-28T14:29:41.267Z,93498.81
2022-09-28T14:32:25.241Z,93481.94
2022-09-28T14:35:00.801Z,93495.16
2022-09-28T14:37:48.730Z,93490.94
2022-09-28T14:40:39.784Z,93495.75
2022-09-28T14:43:27.748Z,93497.91
2022-09-28T14:46:32.172Z,93499.75
2022-09-28T14:49:03.233Z,93504.25
2022-09-28T14:52:03.349Z,93499.94
2022-09-28T14:54:42.956Z,93519.75
2022-09-28T14:57:18.553Z,93500.94
2022-09-28T14:59:48.163Z,93499.63
2022-09-28T15:02:27.491Z,93507.53
2022-09-28T15:05:00.157Z,93497.47
2022-09-28T15:07:34.333Z,93509.97
2022-09-28T15:10:03.389Z,93501.66
2022-09-28T15:12:32.481Z,93499.50
2022-09-28T15:15:03.233Z,93513.22
2022-09-28T15:17:39.293Z,93520.38
2022-09-28T15:20:24.501Z,93516.69
2022-09-28T15:22:57.598Z,93518.41
2022-09-28T15:25:28.264Z,93525.41
2022-09-28T15:27:58.526Z,93524.41
2022-09-28T15:30:29.129Z,93529.03
2022-09-28T15:33:18.502Z,93514.31
2022-09-28T15:35:48.791Z,93521.06
2022-09-28T15:38:18.546Z,93523.53
2022-09-28T15:40:47.838Z,93524.59
2022-09-28T15:43:26.932Z,93528.06
2022-09-28T15:46:02.975Z,93529.25
2022-09-28T15:48:34.483Z,93533.00
2022-09-28T15:51:10.970Z,93531.06
2022-09-28T15:53:48.447Z,93532.44
2022-09-28T15:56:16.337Z,93535.19
2022-09-28T15:58:44.783Z,93537.63
2022-09-28T16:01:35.963Z,93537.19
2022-09-28T16:04:39.436Z,93541.72
2022-09-28T16:07:20.445Z,93535.63
2022-09-28T16:10:02.791Z,93535.66
2022-09-28T16:12:42.073Z,93545.44
2022-09-28T16:15:18.194Z,93548.34
2022-09-28T16:17:51.730Z,93531.13
2022-09-28T16:20:28.595Z,93544.63
2022-09-28T16:22:59.497Z,93549.06
2022-09-28T16:25:28.845Z,93541.19
2022-09-28T16:27:57.500Z,93550.16
2022-09-28T16:30:29.046Z,93544.34
2022-09-28T16:32:59.069Z,93547.16
2022-09-28T16:35:29.869Z,93543.22
2022-09-28T16:38:10.364Z,93552.75
2022-09-28T16:40:43.030Z,93547.13
2022-09-28T16:43:20.337Z,93559.56
2022-09-28T16:45:48.321Z,93557.72
2022-09-28T16:48:20.431Z,93556.59
2022-09-28T16:50:48.298Z,93551.31
2022-09-28T16:53:35.621Z,93561.69
2022-09-28T16:56:06.096Z,93559.00
2022-09-28T16:58:34.223Z,93563.47
2022-09-28T17:01:02.284Z,93537.59
2022-09-28T17:03:30.537Z,93552.66
2022-09-28T17:05:58.558Z,93554.06
2022-09-28T17:08:26.906Z,93559.66
2022-09-28T17:11:13.943Z,93546.47
2022-09-28T17:13:47.174Z,93555.88
2022-09-28T17:16:17.911Z,93557.34
2022-09-28T17:18:46.995Z,93559.09
2022-09-28T17:21:18.107Z,93557.78
2022-09-28T17:23:47.769Z,93549.28
2022-09-28T17:26:21.812Z,93557.81
2022-09-28T17:28:51.080Z,93571.03
2022-09-28T17:31:19.034Z,93563.22
2022-09-28T17:33:47.222Z,93567.03
2022-09-28T17:36:17.353Z,93556.22
2022-09-28T17:38:46.864Z,93572.84
2022-09-28T17:41:20.206Z,93562.00
2022-09-28T17:43:50.572Z,93570.31
2022-09-28T17:46:27.610Z,93560.09
2022-09-28T17:48:57.591Z,93569.91
2022-09-28T17:51:25.588Z,93572.59
2022-09-28T17:53:54.415Z,93577.34
2022-09-28T17:56:22.330Z,93569.47
2022-09-28T17:58:52.556Z,93579.97
2022-09-28T18:01:21.067Z,93577.09
2022-09-28T18:03:48.998Z,93585.38
2022-09-28T18:06:19.754Z,93576.75
2022-09-28T18:08:47.809Z,93576.84
2022-09-28T18:11:15.917Z,93587.09
2022-09-28T18:13:45.974Z,93579.06
2022-09-28T18:16:15.887Z,93584.06
2022-09-28T18:18:43.982Z,93589.16
2022-09-28T18:21:12.364Z,93599.06
2022-09-28T18:23:40.579Z,93588.91
2022-09-28T18:26:12.086Z,93606.31
2022-09-28T18:28:40.101Z,93611.66
2022-09-28T18:31:08.746Z,93596.16
2022-09-28T18:33:38.474Z,93603.81
2022-09-28T18:36:07.420Z,93614.47
2022-09-28T18:38:36.801Z,93588.13
2022-09-28T18:41:10.185Z,93600.41
2022-09-28T18:43:38.760Z,93588.75
2022-09-28T18:46:09.402Z,93592.22
2022-09-28T18:48:40.645Z,93588.19
2022-09-28T18:51:10.115Z,93585.56
2022-09-28T18:53:38.492Z,93592.84
2022-09-28T18:56:08.352Z,93597.88
2022-09-28T18:58:37.086Z,93576.63
2022-09-28T19:01:29.074Z,93587.84
2022-09-28T19:04:00.145Z,93589.03
2022-09-28T19:06:28.806Z,93588.25
2022-09-28T19:08:57.440Z,93606.13
2022-09-28T19:11:26.712Z,93601.44
2022-09-28T19:13:56.543Z,93586.22
2022-09-28T19:16:26.192Z,93599.91
2022-09-28T19:18:54.180Z,93595.06
2022-09-28T19:21:23.843Z,93594.25
2022-09-28T19:23:53.616Z,93622.97
2022-09-28T19:26:23.865Z,93621.25
2022-09-28T19:28:52.274Z,93623.75
2022-09-28T19:31:21.597Z,93614.91
2022-09-28T19:33:50.059Z,93619.66
2022-09-28T19:36:21.906Z,93609.22
2022-09-28T19:38:51.845Z,93627.44
2022-09-28T19:41:38.997Z,93638.69
2022-09-28T19:44:12.051Z,93644.28
2022-09-28T19:46:40.817Z,93630.59
2022-09-28T19:49:10.723Z,93628.47
2022-09-28T19:51:51.513Z,93621.47
2022-09-28T19:54:36.198Z,93635.28
2022-09-28T19:57:07.742Z,93636.94
2022-09-28T19:59:36.708Z,93639.56
2022-09-28T20:02:05.304Z,93638.59
2022-09-28T20:04:33.215Z,93644.25
2022-09-28T20:07:01.868Z,93630.84
2022-09-28T20:09:31.217Z,93626.22
2022-09-28T20:11:59.188Z,93631.84
2022-09-28T20:14:32.882Z,93651.44
2022-09-28T20:17:04.541Z,93620.00
2022-09-28T20:19:32.712Z,93631.38
2022-09-28T20:22:02.870Z,93640.16
2022-09-28T20:24:32.652Z,93632.19
2022-09-28T20:27:01.492Z,93640.28
2022-09-28T20:29:31.877Z,93639.44
2022-09-28T20:32:00.489Z,93638.63
2022-09-28T20:34:28.439Z,93627.47
2022-09-28T20:36:56.344Z,93620.56
2022-09-28T20:39:24.282Z,93623.34
2022-09-28T20:41:54.010Z,93623.31
2022-09-28T20:44:22.002Z,93635.91
2022-09-28T20:46:51.421Z,93627.03
2022-09-28T20:49:28.014Z,93625.53
2022-09-28T20:51:55.958Z,93604.16
2022-09-28T20:54:23.838Z,93610.41
2022-09-28T20:56:53.132Z,93620.19
2022-09-28T20:59:22.912Z,93611.28
2022-09-28T21:01:51.089Z,93611.50
2022-09-28T21:04:19.524Z,93623.50
2022-09-28T21:06:47.522Z,93617.59
2022-09-28T21:09:15.859Z,93587.47
2022-09-28T21:11:43.727Z,93584.84
2022-09-28T21:14:13.020Z,93595.28
2022-09-28T21:16:40.999Z,93593.69
2022-09-28T21:19:08.851Z,93594.91
2022-09-28T21:21:36.775Z,93602.19
2022-09-28T21:24:04.913Z,93605.16
2022-09-28T21:26:33.176Z,93605.25
2022-09-28T21:29:03.254Z,93594.91
2022-09-28T21:31:37.844Z,93597.75
2022-09-28T21:34:05.801Z,93604.94
2022-09-28T21:36:34.429Z,93609.72
2022-09-28T21:39:04.148Z,93614.66
2022-09-28T21:41:35.221Z,93599.00
2022-09-28T21:44:03.373Z,93593.78
2022-09-28T21:46:34.304Z,93592.31
2022-09-28T21:49:02.852Z,93599.94
2022-09-28T21:51:31.511Z,93587.31
2022-09-28T21:53:59.460Z,93586.53
2022-09-28T21:56:27.827Z,93580.50
2022-09-28T21:58:55.772Z,93589.84
2022-09-28T22:01:26.095Z,93585.06
2022-09-28T22:03:56.928Z,93567.63
2022-09-28T22:06:27.953Z,93573.78
2022-09-28T22:08:56.043Z,93583.78
2022-09-28T22:11:25.820Z,93588.78
2022-09-28T22:13:55.785Z,93588.44
2022-09-28T22:16:25.653Z,93591.84
2022-09-28T22:18:55.384Z,93586.84
2022-09-28T22:21:24.710Z,93584.00
2022-09-28T22:23:52.964Z,93586.88
2022-09-28T22:26:23.502Z,93586.75
2022-09-28T22:28:53.399Z,93581.94
2022-09-28T22:31:24.137Z,93581.22
2022-09-28T22:33:52.105Z,93580.78
2022-09-28T22:36:21.697Z,93577.38
2022-09-28T22:38:50.202Z,93587.84
2022-09-28T22:41:20.873Z,93588.69
2022-09-28T22:43:49.315Z,93580.91
2022-09-28T22:46:19.356Z,93569.41
2022-09-28T22:48:48.579Z,93574.88
2022-09-28T22:51:16.991Z,93579.66
2022-09-28T22:53:46.881Z,93589.97
2022-09-28T22:56:18.757Z,93578.13
2022-09-28T22:58:47.953Z,93581.84
2022-09-28T23:01:18.526Z,93579.19
2022-09-28T23:03:46.874Z,93592.13
2022-09-28T23:06:17.405Z,93579.59
2022-09-28T23:08:47.442Z,93580.69
2022-09-28T23:11:16.150Z,93581.00
2022-09-28T23:13:44.858Z,93585.81
2022-09-28T23:16:14.926Z,93593.06
2022-09-28T23:18:43.660Z,93581.53
2022-09-28T23:21:13.446Z,93577.09
2022-09-28T23:23:41.312Z,93580.09
2022-09-28T23:26:16.116Z,93585.63
2022-09-28T23:28:44.687Z,93574.78
2022-09-28T23:31:15.263Z,93563.59
2022-09-28T23:33:43.291Z,93564.50
2022-09-28T23:36:11.411Z,93556.63
2022-09-28T23:38:40.064Z,93557.25
2022-09-28T23:41:08.450Z,93558.19
2022-09-28T23:43:37.983Z,93564.22
2022-09-28T23:46:06.569Z,93565.25
2022-09-28T23:48:35.074Z,93559.09
2022-09-28T23:51:04.027Z,93564.22
2022-09-28T23:53:33.263Z,93566.41
2022-09-28T23:56:01.541Z,93562.84
2022-09-28T23:58:29.506Z,93565.69
